sensor_id;sensor_type;location;lat;lon;timestamp;temperature;humidity
27492;DHT22;14927;51.210;6.838;2023-05-16T00:02:19;17.50;60.10
27492;DHT22;14927;51.210;6.838;2023-05-16T00:05:04;17.50;60.10
27492;DHT22;14927;51.210;6.838;2023-05-16T00:07:50;17.50;59.90
27492;DHT22;14927;51.210;6.838;2023-05-16T00:10:35;17.40;60.00
27492;DHT22;14927;51.210;6.838;2023-05-16T00:13:20;17.40;60.00
27492;DHT22;14927;51.210;6.838;2023-05-16T00:16:08;17.50;59.90
27492;DHT22;14927;51.210;6.838;2023-05-16T00:18:55;17.40;59.70
27492;DHT22;14927;51.210;6.838;2023-05-16T00:21:43;17.40;59.70
27492;DHT22;14927;51.210;6.838;2023-05-16T00:24:28;17.40;59.80
27492;DHT22;14927;51.210;6.838;2023-05-16T00:27:12;17.30;59.80
27492;DHT22;14927;51.210;6.838;2023-05-16T00:29:57;17.30;59.80
27492;DHT22;14927;51.210;6.838;2023-05-16T00:32:41;17.30;59.80
27492;DHT22;14927;51.210;6.838;2023-05-16T00:35:26;17.30;60.00
27492;DHT22;14927;51.210;6.838;2023-05-16T00:38:11;17.30;59.90
27492;DHT22;14927;51.210;6.838;2023-05-16T00:40:55;17.20;59.90
27492;DHT22;14927;51.210;6.838;2023-05-16T00:43:40;17.20;59.80
27492;DHT22;14927;51.210;6.838;2023-05-16T00:46:24;17.20;60.00
27492;DHT22;14927;51.210;6.838;2023-05-16T00:49:09;17.20;59.80
27492;DHT22;14927;51.210;6.838;2023-05-16T00:51:55;17.10;59.70
27492;DHT22;14927;51.210;6.838;2023-05-16T00:54:40;17.20;59.60
27492;DHT22;14927;51.210;6.838;2023-05-16T00:57:26;17.10;59.60
27492;DHT22;14927;51.210;6.838;2023-05-16T01:00:11;17.10;59.60
27492;DHT22;14927;51.210;6.838;2023-05-16T01:03:01;17.00;59.40
27492;DHT22;14927;51.210;6.838;2023-05-16T01:05:47;17.00;59.30
27492;DHT22;14927;51.210;6.838;2023-05-16T01:08:32;16.90;59.20
27492;DHT22;14927;51.210;6.838;2023-05-16T01:11:36;16.90;59.10
27492;DHT22;14927;51.210;6.838;2023-05-16T01:18:38;16.80;59.70
27492;DHT22;14927;51.210;6.838;2023-05-16T01:21:43;16.80;59.20
27492;DHT22;14927;51.210;6.838;2023-05-16T01:28:22;16.70;59.50
27492;DHT22;14927;51.210;6.838;2023-05-16T01:31:07;16.60;59.10
27492;DHT22;14927;51.210;6.838;2023-05-16T01:33:52;16.60;59.30
27492;DHT22;14927;51.210;6.838;2023-05-16T01:36:43;16.60;59.50
27492;DHT22;14927;51.210;6.838;2023-05-16T01:39:56;16.50;60.30
27492;DHT22;14927;51.210;6.838;2023-05-16T01:42:46;16.50;60.10
27492;DHT22;14927;51.210;6.838;2023-05-16T01:45:35;16.40;59.50
27492;DHT22;14927;51.210;6.838;2023-05-16T01:48:26;16.40;59.50
27492;DHT22;14927;51.210;6.838;2023-05-16T01:51:16;16.40;59.50
27492;DHT22;14927;51.210;6.838;2023-05-16T01:54:05;16.30;59.50
27492;DHT22;14927;51.210;6.838;2023-05-16T01:56:53;16.30;59.40
27492;DHT22;14927;51.210;6.838;2023-05-16T01:59:39;16.30;59.20
27492;DHT22;14927;51.210;6.838;2023-05-16T02:02:26;16.20;59.20
27492;DHT22;14927;51.210;6.838;2023-05-16T02:05:10;16.20;59.00
27492;DHT22;14927;51.210;6.838;2023-05-16T02:07:55;16.20;58.80
27492;DHT22;14927;51.210;6.838;2023-05-16T02:10:39;16.10;58.70
27492;DHT22;14927;51.210;6.838;2023-05-16T02:13:24;16.10;58.80
27492;DHT22;14927;51.210;6.838;2023-05-16T02:16:12;16.10;58.80
27492;DHT22;14927;51.210;6.838;2023-05-16T02:18:56;16.00;58.90
27492;DHT22;14927;51.210;6.838;2023-05-16T02:21:41;16.00;59.00
27492;DHT22;14927;51.210;6.838;2023-05-16T02:24:25;16.00;59.10
27492;DHT22;14927;51.210;6.838;2023-05-16T02:27:10;16.00;59.30
27492;DHT22;14927;51.210;6.838;2023-05-16T02:29:55;15.90;59.60
27492;DHT22;14927;51.210;6.838;2023-05-16T02:32:40;15.90;59.70
27492;DHT22;14927;51.210;6.838;2023-05-16T02:35:27;15.90;59.70
27492;DHT22;14927;51.210;6.838;2023-05-16T02:38:12;15.90;59.60
27492;DHT22;14927;51.210;6.838;2023-05-16T02:41:00;15.90;59.70
27492;DHT22;14927;51.210;6.838;2023-05-16T02:43:45;15.90;59.70
27492;DHT22;14927;51.210;6.838;2023-05-16T02:46:32;15.90;59.60
27492;DHT22;14927;51.210;6.838;2023-05-16T02:49:18;15.90;59.60
27492;DHT22;14927;51.210;6.838;2023-05-16T02:52:02;15.90;59.70
27492;DHT22;14927;51.210;6.838;2023-05-16T02:54:48;15.90;59.80
27492;DHT22;14927;51.210;6.838;2023-05-16T02:57:32;15.90;59.80
27492;DHT22;14927;51.210;6.838;2023-05-16T03:00:17;15.90;59.90
27492;DHT22;14927;51.210;6.838;2023-05-16T03:03:03;15.90;60.00
27492;DHT22;14927;51.210;6.838;2023-05-16T03:05:47;15.90;60.00
27492;DHT22;14927;51.210;6.838;2023-05-16T03:08:32;15.90;59.80
27492;DHT22;14927;51.210;6.838;2023-05-16T03:11:18;15.80;59.40
27492;DHT22;14927;51.210;6.838;2023-05-16T03:14:08;15.90;60.10
27492;DHT22;14927;51.210;6.838;2023-05-16T03:16:53;15.80;59.40
27492;DHT22;14927;51.210;6.838;2023-05-16T03:19:38;15.80;59.40
27492;DHT22;14927;51.210;6.838;2023-05-16T03:22:22;15.80;59.50
27492;DHT22;14927;51.210;6.838;2023-05-16T03:25:07;15.80;59.40
27492;DHT22;14927;51.210;6.838;2023-05-16T03:27:52;15.80;59.20
27492;DHT22;14927;51.210;6.838;2023-05-16T03:30:36;15.80;59.10
27492;DHT22;14927;51.210;6.838;2023-05-16T03:33:21;15.70;58.90
27492;DHT22;14927;51.210;6.838;2023-05-16T03:36:07;15.80;58.90
27492;DHT22;14927;51.210;6.838;2023-05-16T03:38:52;15.70;58.50
27492;DHT22;14927;51.210;6.838;2023-05-16T03:41:36;15.70;58.30
27492;DHT22;14927;51.210;6.838;2023-05-16T03:44:21;15.70;58.30
27492;DHT22;14927;51.210;6.838;2023-05-16T03:47:06;15.70;58.30
27492;DHT22;14927;51.210;6.838;2023-05-16T03:49:51;15.70;58.30
27492;DHT22;14927;51.210;6.838;2023-05-16T03:52:36;15.60;58.30
27492;DHT22;14927;51.210;6.838;2023-05-16T03:55:21;15.60;58.30
27492;DHT22;14927;51.210;6.838;2023-05-16T03:58:05;15.60;58.30
27492;DHT22;14927;51.210;6.838;2023-05-16T04:00:50;15.60;58.20
27492;DHT22;14927;51.210;6.838;2023-05-16T04:03:35;15.50;57.90
27492;DHT22;14927;51.210;6.838;2023-05-16T04:06:21;15.50;57.80
27492;DHT22;14927;51.210;6.838;2023-05-16T04:09:06;15.40;57.60
27492;DHT22;14927;51.210;6.838;2023-05-16T04:11:50;15.40;57.40
27492;DHT22;14927;51.210;6.838;2023-05-16T04:14:35;15.40;57.30
27492;DHT22;14927;51.210;6.838;2023-05-16T04:17:19;15.30;57.40
27492;DHT22;14927;51.210;6.838;2023-05-16T04:20:05;15.30;57.60
27492;DHT22;14927;51.210;6.838;2023-05-16T04:22:50;15.20;57.60
27492;DHT22;14927;51.210;6.838;2023-05-16T04:25:35;15.20;57.70
27492;DHT22;14927;51.210;6.838;2023-05-16T04:28:20;15.20;57.60
27492;DHT22;14927;51.210;6.838;2023-05-16T04:31:04;15.20;57.60
27492;DHT22;14927;51.210;6.838;2023-05-16T04:33:49;15.10;57.60
27492;DHT22;14927;51.210;6.838;2023-05-16T04:36:33;15.10;57.50
27492;DHT22;14927;51.210;6.838;2023-05-16T04:39:18;15.00;57.50
27492;DHT22;14927;51.210;6.838;2023-05-16T04:42:03;15.00;57.60
27492;DHT22;14927;51.210;6.838;2023-05-16T04:44:48;15.00;57.60
27492;DHT22;14927;51.210;6.838;2023-05-16T04:47:33;15.00;58.10
27492;DHT22;14927;51.210;6.838;2023-05-16T04:50:18;14.90;57.50
27492;DHT22;14927;51.210;6.838;2023-05-16T04:53:03;14.90;57.60
27492;DHT22;14927;51.210;6.838;2023-05-16T04:55:47;14.90;57.70
27492;DHT22;14927;51.210;6.838;2023-05-16T04:58:32;14.90;57.90
27492;DHT22;14927;51.210;6.838;2023-05-16T05:01:17;14.90;58.10
27492;DHT22;14927;51.210;6.838;2023-05-16T05:04:05;14.90;58.30
27492;DHT22;14927;51.210;6.838;2023-05-16T05:06:50;14.90;58.50
27492;DHT22;14927;51.210;6.838;2023-05-16T05:09:34;14.90;58.70
27492;DHT22;14927;51.210;6.838;2023-05-16T05:12:19;14.80;58.70
27492;DHT22;14927;51.210;6.838;2023-05-16T05:15:04;14.80;58.70
27492;DHT22;14927;51.210;6.838;2023-05-16T05:17:49;14.80;58.70
27492;DHT22;14927;51.210;6.838;2023-05-16T05:20:34;14.90;58.80
27492;DHT22;14927;51.210;6.838;2023-05-16T05:23:18;14.80;58.60
27492;DHT22;14927;51.210;6.838;2023-05-16T05:26:04;14.80;58.60
27492;DHT22;14927;51.210;6.838;2023-05-16T05:28:48;14.90;58.60
27492;DHT22;14927;51.210;6.838;2023-05-16T05:31:33;14.90;58.70
27492;DHT22;14927;51.210;6.838;2023-05-16T05:34:18;14.90;58.70
27492;DHT22;14927;51.210;6.838;2023-05-16T05:37:03;14.90;58.60
27492;DHT22;14927;51.210;6.838;2023-05-16T05:39:48;14.90;58.30
27492;DHT22;14927;51.210;6.838;2023-05-16T05:42:32;14.90;58.20
27492;DHT22;14927;51.210;6.838;2023-05-16T05:45:17;15.00;58.20
27492;DHT22;14927;51.210;6.838;2023-05-16T05:48:01;14.90;58.00
27492;DHT22;14927;51.210;6.838;2023-05-16T05:50:46;15.00;57.70
27492;DHT22;14927;51.210;6.838;2023-05-16T05:53:30;15.00;57.50
27492;DHT22;14927;51.210;6.838;2023-05-16T05:56:15;15.00;57.50
27492;DHT22;14927;51.210;6.838;2023-05-16T05:58:59;15.00;57.30
27492;DHT22;14927;51.210;6.838;2023-05-16T06:01:44;15.10;57.20
27492;DHT22;14927;51.210;6.838;2023-05-16T06:04:29;15.10;57.10
27492;DHT22;14927;51.210;6.838;2023-05-16T06:07:13;15.10;56.90
27492;DHT22;14927;51.210;6.838;2023-05-16T06:09:59;15.20;56.70
27492;DHT22;14927;51.210;6.838;2023-05-16T06:12:47;15.20;56.50
27492;DHT22;14927;51.210;6.838;2023-05-16T06:15:31;15.20;56.40
27492;DHT22;14927;51.210;6.838;2023-05-16T06:18:16;15.30;56.10
27492;DHT22;14927;51.210;6.838;2023-05-16T06:21:01;15.30;55.80
27492;DHT22;14927;51.210;6.838;2023-05-16T06:23:45;15.30;55.70
27492;DHT22;14927;51.210;6.838;2023-05-16T06:26:30;15.30;55.90
27492;DHT22;14927;51.210;6.838;2023-05-16T06:29:15;15.40;56.10
27492;DHT22;14927;51.210;6.838;2023-05-16T06:32:00;15.40;55.90
27492;DHT22;14927;51.210;6.838;2023-05-16T06:34:45;15.50;55.90
27492;DHT22;14927;51.210;6.838;2023-05-16T06:37:29;15.80;55.80
27492;DHT22;14927;51.210;6.838;2023-05-16T06:40:14;15.60;55.50
27492;DHT22;14927;51.210;6.838;2023-05-16T06:42:58;15.60;55.40
27492;DHT22;14927;51.210;6.838;2023-05-16T06:45:43;15.70;55.30
27492;DHT22;14927;51.210;6.838;2023-05-16T06:48:29;15.70;55.20
27492;DHT22;14927;51.210;6.838;2023-05-16T06:51:14;15.80;55.50
27492;DHT22;14927;51.210;6.838;2023-05-16T06:53:59;15.90;54.70
27492;DHT22;14927;51.210;6.838;2023-05-16T06:56:44;16.00;54.20
27492;DHT22;14927;51.210;6.838;2023-05-16T06:59:29;16.00;53.60
27492;DHT22;14927;51.210;6.838;2023-05-16T07:02:13;16.10;53.60
27492;DHT22;14927;51.210;6.838;2023-05-16T07:04:58;16.10;53.60
27492;DHT22;14927;51.210;6.838;2023-05-16T07:07:42;16.20;53.30
27492;DHT22;14927;51.210;6.838;2023-05-16T07:10:27;16.30;53.30
27492;DHT22;14927;51.210;6.838;2023-05-16T07:13:12;16.30;53.40
27492;DHT22;14927;51.210;6.838;2023-05-16T07:15:56;16.40;53.00
27492;DHT22;14927;51.210;6.838;2023-05-16T07:18:41;16.40;52.50
27492;DHT22;14927;51.210;6.838;2023-05-16T07:21:25;16.50;52.30
27492;DHT22;14927;51.210;6.838;2023-05-16T07:24:10;16.50;52.00
27492;DHT22;14927;51.210;6.838;2023-05-16T07:26:55;16.50;51.70
27492;DHT22;14927;51.210;6.838;2023-05-16T07:29:40;16.60;51.40
27492;DHT22;14927;51.210;6.838;2023-05-16T07:32:24;16.60;50.90
27492;DHT22;14927;51.210;6.838;2023-05-16T07:35:09;16.60;50.50
27492;DHT22;14927;51.210;6.838;2023-05-16T07:37:54;16.60;50.20
27492;DHT22;14927;51.210;6.838;2023-05-16T07:40:39;16.50;50.10
27492;DHT22;14927;51.210;6.838;2023-05-16T07:43:23;16.50;50.00
27492;DHT22;14927;51.210;6.838;2023-05-16T07:46:09;16.60;49.80
27492;DHT22;14927;51.210;6.838;2023-05-16T07:48:54;16.60;49.50
27492;DHT22;14927;51.210;6.838;2023-05-16T07:51:39;16.60;49.20
27492;DHT22;14927;51.210;6.838;2023-05-16T07:54:23;16.60;48.60
27492;DHT22;14927;51.210;6.838;2023-05-16T07:57:08;16.70;48.30
27492;DHT22;14927;51.210;6.838;2023-05-16T07:59:53;16.70;48.00
27492;DHT22;14927;51.210;6.838;2023-05-16T08:02:38;16.80;47.90
27492;DHT22;14927;51.210;6.838;2023-05-16T08:05:22;16.80;47.90
27492;DHT22;14927;51.210;6.838;2023-05-16T08:08:07;16.80;47.70
27492;DHT22;14927;51.210;6.838;2023-05-16T08:10:52;16.90;47.70
27492;DHT22;14927;51.210;6.838;2023-05-16T08:13:38;16.90;47.30
27492;DHT22;14927;51.210;6.838;2023-05-16T08:16:22;16.90;47.00
27492;DHT22;14927;51.210;6.838;2023-05-16T08:19:07;16.90;46.70
27492;DHT22;14927;51.210;6.838;2023-05-16T08:21:52;17.00;46.60
27492;DHT22;14927;51.210;6.838;2023-05-16T08:24:36;16.90;46.50
27492;DHT22;14927;51.210;6.838;2023-05-16T08:27:21;16.90;46.60
27492;DHT22;14927;51.210;6.838;2023-05-16T08:30:06;16.90;46.70
27492;DHT22;14927;51.210;6.838;2023-05-16T08:32:51;17.00;46.50
27492;DHT22;14927;51.210;6.838;2023-05-16T08:35:36;16.90;46.60
27492;DHT22;14927;51.210;6.838;2023-05-16T08:38:20;17.00;46.70
27492;DHT22;14927;51.210;6.838;2023-05-16T08:41:05;17.00;46.40
27492;DHT22;14927;51.210;6.838;2023-05-16T08:43:51;17.00;46.00
27492;DHT22;14927;51.210;6.838;2023-05-16T08:46:36;17.10;45.70
27492;DHT22;14927;51.210;6.838;2023-05-16T08:49:20;17.20;45.50
27492;DHT22;14927;51.210;6.838;2023-05-16T08:52:08;17.30;45.40
27492;DHT22;14927;51.210;6.838;2023-05-16T08:54:53;17.30;45.50
27492;DHT22;14927;51.210;6.838;2023-05-16T08:57:38;17.40;45.50
27492;DHT22;14927;51.210;6.838;2023-05-16T09:00:23;17.50;45.30
27492;DHT22;14927;51.210;6.838;2023-05-16T09:03:08;17.60;45.00
27492;DHT22;14927;51.210;6.838;2023-05-16T09:05:52;17.60;44.80
27492;DHT22;14927;51.210;6.838;2023-05-16T09:08:37;17.70;44.90
27492;DHT22;14927;51.210;6.838;2023-05-16T09:11:22;17.80;44.70
27492;DHT22;14927;51.210;6.838;2023-05-16T09:14:07;17.90;44.30
27492;DHT22;14927;51.210;6.838;2023-05-16T09:17:06;18.00;43.70
27492;DHT22;14927;51.210;6.838;2023-05-16T09:19:52;18.00;42.60
27492;DHT22;14927;51.210;6.838;2023-05-16T09:22:52;18.00;43.20
27492;DHT22;14927;51.210;6.838;2023-05-16T09:25:40;18.00;42.80
27492;DHT22;14927;51.210;6.838;2023-05-16T09:28:25;18.10;43.50
27492;DHT22;14927;51.210;6.838;2023-05-16T09:31:30;18.10;44.00
27492;DHT22;14927;51.210;6.838;2023-05-16T09:34:21;18.10;42.50
27492;DHT22;14927;51.210;6.838;2023-05-16T09:37:06;18.20;43.30
27492;DHT22;14927;51.210;6.838;2023-05-16T09:39:53;18.20;43.10
27492;DHT22;14927;51.210;6.838;2023-05-16T09:42:38;18.30;42.80
27492;DHT22;14927;51.210;6.838;2023-05-16T09:45:22;18.30;42.60
27492;DHT22;14927;51.210;6.838;2023-05-16T09:48:11;18.30;41.80
27492;DHT22;14927;51.210;6.838;2023-05-16T09:50:58;18.40;41.50
27492;DHT22;14927;51.210;6.838;2023-05-16T09:53:47;18.40;41.80
27492;DHT22;14927;51.210;6.838;2023-05-16T09:56:31;18.50;41.30
27492;DHT22;14927;51.210;6.838;2023-05-16T09:59:16;18.50;41.10
27492;DHT22;14927;51.210;6.838;2023-05-16T10:02:02;18.60;41.30
27492;DHT22;14927;51.210;6.838;2023-05-16T10:04:49;18.70;41.50
27492;DHT22;14927;51.210;6.838;2023-05-16T10:07:34;18.80;41.40
27492;DHT22;14927;51.210;6.838;2023-05-16T10:10:22;18.80;41.40
27492;DHT22;14927;51.210;6.838;2023-05-16T10:13:08;18.90;41.00
27492;DHT22;14927;51.210;6.838;2023-05-16T10:15:58;19.00;40.70
27492;DHT22;14927;51.210;6.838;2023-05-16T10:18:44;19.00;39.60
27492;DHT22;14927;51.210;6.838;2023-05-16T10:21:29;19.10;39.80
27492;DHT22;14927;51.210;6.838;2023-05-16T10:24:20;19.20;39.50
27492;DHT22;14927;51.210;6.838;2023-05-16T10:27:08;19.20;39.30
27492;DHT22;14927;51.210;6.838;2023-05-16T10:29:54;19.20;39.40
27492;DHT22;14927;51.210;6.838;2023-05-16T10:32:40;19.20;39.50
27492;DHT22;14927;51.210;6.838;2023-05-16T10:35:25;19.20;39.60
27492;DHT22;14927;51.210;6.838;2023-05-16T10:38:13;19.20;39.80
27492;DHT22;14927;51.210;6.838;2023-05-16T10:41:00;19.20;39.60
27492;DHT22;14927;51.210;6.838;2023-05-16T10:43:55;19.20;39.90
27492;DHT22;14927;51.210;6.838;2023-05-16T10:46:41;19.10;39.30
27492;DHT22;14927;51.210;6.838;2023-05-16T10:49:26;19.20;40.00
27492;DHT22;14927;51.210;6.838;2023-05-16T10:52:14;19.20;40.20
27492;DHT22;14927;51.210;6.838;2023-05-16T10:55:02;19.30;40.20
27492;DHT22;14927;51.210;6.838;2023-05-16T10:57:48;19.40;40.00
27492;DHT22;14927;51.210;6.838;2023-05-16T11:00:32;19.20;39.90
27492;DHT22;14927;51.210;6.838;2023-05-16T11:03:23;19.50;40.40
27492;DHT22;14927;51.210;6.838;2023-05-16T11:06:08;19.50;40.00
27492;DHT22;14927;51.210;6.838;2023-05-16T11:12:08;19.50;39.90
27492;DHT22;14927;51.210;6.838;2023-05-16T11:14:53;19.50;40.40
27492;DHT22;14927;51.210;6.838;2023-05-16T11:17:42;19.40;40.40
27492;DHT22;14927;51.210;6.838;2023-05-16T11:20:29;19.50;40.40
27492;DHT22;14927;51.210;6.838;2023-05-16T11:26:00;19.50;40.80
27492;DHT22;14927;51.210;6.838;2023-05-16T11:28:48;19.50;41.00
27492;DHT22;14927;51.210;6.838;2023-05-16T11:31:34;19.50;40.90
27492;DHT22;14927;51.210;6.838;2023-05-16T11:34:19;19.60;40.90
27492;DHT22;14927;51.210;6.838;2023-05-16T11:37:04;19.60;40.90
27492;DHT22;14927;51.210;6.838;2023-05-16T11:39:49;19.70;41.00
27492;DHT22;14927;51.210;6.838;2023-05-16T11:42:42;19.70;40.70
27492;DHT22;14927;51.210;6.838;2023-05-16T11:45:27;19.90;39.90
27492;DHT22;14927;51.210;6.838;2023-05-16T11:48:11;19.90;40.80
27492;DHT22;14927;51.210;6.838;2023-05-16T11:50:56;20.10;40.40
27492;DHT22;14927;51.210;6.838;2023-05-16T11:53:41;20.10;40.40
27492;DHT22;14927;51.210;6.838;2023-05-16T11:56:26;20.30;40.00
27492;DHT22;14927;51.210;6.838;2023-05-16T11:59:10;20.40;39.40
27492;DHT22;14927;51.210;6.838;2023-05-16T12:01:55;20.60;39.20
27492;DHT22;14927;51.210;6.838;2023-05-16T12:04:40;20.80;38.40
27492;DHT22;14927;51.210;6.838;2023-05-16T12:07:27;20.90;37.70
27492;DHT22;14927;51.210;6.838;2023-05-16T12:10:15;21.00;36.90
27492;DHT22;14927;51.210;6.838;2023-05-16T12:13:01;21.10;36.30
27492;DHT22;14927;51.210;6.838;2023-05-16T12:15:47;21.20;36.20
27492;DHT22;14927;51.210;6.838;2023-05-16T12:18:31;21.30;36.20
27492;DHT22;14927;51.210;6.838;2023-05-16T12:21:15;21.30;36.30
27492;DHT22;14927;51.210;6.838;2023-05-16T12:24:01;21.30;36.50
27492;DHT22;14927;51.210;6.838;2023-05-16T12:26:45;21.30;37.00
27492;DHT22;14927;51.210;6.838;2023-05-16T12:29:30;21.40;37.30
27492;DHT22;14927;51.210;6.838;2023-05-16T12:32:19;21.40;37.50
27492;DHT22;14927;51.210;6.838;2023-05-16T12:35:04;21.40;37.40
27492;DHT22;14927;51.210;6.838;2023-05-16T12:37:49;21.50;37.60
27492;DHT22;14927;51.210;6.838;2023-05-16T12:40:37;21.60;37.70
27492;DHT22;14927;51.210;6.838;2023-05-16T12:43:22;21.70;37.90
27492;DHT22;14927;51.210;6.838;2023-05-16T12:46:09;21.90;37.10
27492;DHT22;14927;51.210;6.838;2023-05-16T12:49:03;22.00;37.20
27492;DHT22;14927;51.210;6.838;2023-05-16T12:51:50;22.20;36.70
27492;DHT22;14927;51.210;6.838;2023-05-16T12:54:35;22.40;36.10
27492;DHT22;14927;51.210;6.838;2023-05-16T12:57:20;22.50;35.70
27492;DHT22;14927;51.210;6.838;2023-05-16T13:00:05;22.80;35.70
27492;DHT22;14927;51.210;6.838;2023-05-16T13:02:51;23.00;35.20
27492;DHT22;14927;51.210;6.838;2023-05-16T13:05:36;23.20;34.20
27492;DHT22;14927;51.210;6.838;2023-05-16T13:08:20;23.40;33.40
27492;DHT22;14927;51.210;6.838;2023-05-16T13:11:05;23.60;32.80
27492;DHT22;14927;51.210;6.838;2023-05-16T13:13:49;23.80;32.50
27492;DHT22;14927;51.210;6.838;2023-05-16T13:16:34;24.00;31.20
27492;DHT22;14927;51.210;6.838;2023-05-16T13:19:18;24.30;30.10
27492;DHT22;14927;51.210;6.838;2023-05-16T13:22:05;24.60;29.40
27492;DHT22;14927;51.210;6.838;2023-05-16T13:24:49;24.80;28.50
27492;DHT22;14927;51.210;6.838;2023-05-16T13:27:37;25.00;28.20
27492;DHT22;14927;51.210;6.838;2023-05-16T13:30:21;25.20;28.20
27492;DHT22;14927;51.210;6.838;2023-05-16T13:33:07;25.50;27.90
27492;DHT22;14927;51.210;6.838;2023-05-16T13:35:52;25.60;27.80
27492;DHT22;14927;51.210;6.838;2023-05-16T13:38:38;25.80;27.60
27492;DHT22;14927;51.210;6.838;2023-05-16T13:41:23;26.00;26.90
27492;DHT22;14927;51.210;6.838;2023-05-16T13:44:07;26.10;26.70
27492;DHT22;14927;51.210;6.838;2023-05-16T13:46:52;26.30;26.70
27492;DHT22;14927;51.210;6.838;2023-05-16T13:49:37;26.40;26.40
27492;DHT22;14927;51.210;6.838;2023-05-16T13:52:21;26.50;26.20
27492;DHT22;14927;51.210;6.838;2023-05-16T13:55:06;26.60;26.00
27492;DHT22;14927;51.210;6.838;2023-05-16T13:57:51;26.50;25.90
27492;DHT22;14927;51.210;6.838;2023-05-16T14:00:36;26.50;25.90
27492;DHT22;14927;51.210;6.838;2023-05-16T14:03:20;26.50;26.20
27492;DHT22;14927;51.210;6.838;2023-05-16T14:06:06;26.60;26.10
27492;DHT22;14927;51.210;6.838;2023-05-16T14:08:51;26.60;26.00
27492;DHT22;14927;51.210;6.838;2023-05-16T14:11:36;26.70;26.00
27492;DHT22;14927;51.210;6.838;2023-05-16T14:14:20;26.60;25.60
27492;DHT22;14927;51.210;6.838;2023-05-16T14:17:08;26.60;25.20
27492;DHT22;14927;51.210;6.838;2023-05-16T14:19:56;26.50;25.30
27492;DHT22;14927;51.210;6.838;2023-05-16T14:22:40;26.10;25.10
27492;DHT22;14927;51.210;6.838;2023-05-16T14:25:25;26.20;25.30
27492;DHT22;14927;51.210;6.838;2023-05-16T14:28:10;26.00;25.60
27492;DHT22;14927;51.210;6.838;2023-05-16T14:30:54;25.90;25.90
27492;DHT22;14927;51.210;6.838;2023-05-16T14:33:39;25.70;26.10
27492;DHT22;14927;51.210;6.838;2023-05-16T14:36:24;25.50;26.20
27492;DHT22;14927;51.210;6.838;2023-05-16T14:39:08;25.20;26.40
27492;DHT22;14927;51.210;6.838;2023-05-16T14:41:53;25.10;26.50
27492;DHT22;14927;51.210;6.838;2023-05-16T14:44:37;25.00;26.70
27492;DHT22;14927;51.210;6.838;2023-05-16T14:47:23;24.80;27.00
27492;DHT22;14927;51.210;6.838;2023-05-16T14:50:08;24.70;26.80
27492;DHT22;14927;51.210;6.838;2023-05-16T14:52:53;24.60;26.90
27492;DHT22;14927;51.210;6.838;2023-05-16T14:55:38;24.50;27.00
27492;DHT22;14927;51.210;6.838;2023-05-16T14:58:23;24.40;26.90
27492;DHT22;14927;51.210;6.838;2023-05-16T15:01:07;24.20;27.10
27492;DHT22;14927;51.210;6.838;2023-05-16T15:03:52;24.10;27.10
27492;DHT22;14927;51.210;6.838;2023-05-16T15:06:36;23.90;27.10
27492;DHT22;14927;51.210;6.838;2023-05-16T15:09:21;23.80;27.20
27492;DHT22;14927;51.210;6.838;2023-05-16T15:12:06;23.70;27.50
27492;DHT22;14927;51.210;6.838;2023-05-16T15:14:51;23.60;27.70
27492;DHT22;14927;51.210;6.838;2023-05-16T15:17:39;23.50;28.00
27492;DHT22;14927;51.210;6.838;2023-05-16T15:20:24;23.40;28.00
27492;DHT22;14927;51.210;6.838;2023-05-16T15:23:09;23.30;28.00
27492;DHT22;14927;51.210;6.838;2023-05-16T15:25:53;23.20;28.30
27492;DHT22;14927;51.210;6.838;2023-05-16T15:28:38;23.20;28.30
27492;DHT22;14927;51.210;6.838;2023-05-16T15:31:23;23.10;28.50
27492;DHT22;14927;51.210;6.838;2023-05-16T15:34:07;23.10;28.50
27492;DHT22;14927;51.210;6.838;2023-05-16T15:36:52;23.00;28.50
27492;DHT22;14927;51.210;6.838;2023-05-16T15:39:37;22.90;28.70
27492;DHT22;14927;51.210;6.838;2023-05-16T15:42:22;22.80;28.90
27492;DHT22;14927;51.210;6.838;2023-05-16T15:45:07;22.70;29.10
27492;DHT22;14927;51.210;6.838;2023-05-16T15:47:52;22.70;29.30
27492;DHT22;14927;51.210;6.838;2023-05-16T15:50:37;22.60;29.40
27492;DHT22;14927;51.210;6.838;2023-05-16T15:53:22;22.60;29.60
27492;DHT22;14927;51.210;6.838;2023-05-16T15:56:07;22.50;29.80
27492;DHT22;14927;51.210;6.838;2023-05-16T15:58:54;22.40;30.40
27492;DHT22;14927;51.210;6.838;2023-05-16T16:01:39;22.30;30.00
27492;DHT22;14927;51.210;6.838;2023-05-16T16:04:24;22.30;30.10
27492;DHT22;14927;51.210;6.838;2023-05-16T16:07:09;22.20;30.10
27492;DHT22;14927;51.210;6.838;2023-05-16T16:09:54;22.20;30.30
27492;DHT22;14927;51.210;6.838;2023-05-16T16:12:39;22.10;30.40
27492;DHT22;14927;51.210;6.838;2023-05-16T16:15:23;22.00;30.80
27492;DHT22;14927;51.210;6.838;2023-05-16T16:18:08;22.00;31.00
27492;DHT22;14927;51.210;6.838;2023-05-16T16:20:55;21.90;31.10
27492;DHT22;14927;51.210;6.838;2023-05-16T16:23:39;21.80;31.40
27492;DHT22;14927;51.210;6.838;2023-05-16T16:26:25;21.80;31.80
27492;DHT22;14927;51.210;6.838;2023-05-16T16:29:09;21.70;32.00
27492;DHT22;14927;51.210;6.838;2023-05-16T16:31:54;21.60;32.30
27492;DHT22;14927;51.210;6.838;2023-05-16T16:34:39;21.50;32.70
27492;DHT22;14927;51.210;6.838;2023-05-16T16:37:23;21.50;33.10
27492;DHT22;14927;51.210;6.838;2023-05-16T16:40:08;21.40;33.10
27492;DHT22;14927;51.210;6.838;2023-05-16T16:42:53;21.30;33.10
27492;DHT22;14927;51.210;6.838;2023-05-16T16:45:38;21.20;33.20
27492;DHT22;14927;51.210;6.838;2023-05-16T16:48:22;21.20;33.30
27492;DHT22;14927;51.210;6.838;2023-05-16T16:51:07;21.10;33.30
27492;DHT22;14927;51.210;6.838;2023-05-16T16:53:51;21.00;33.30
27492;DHT22;14927;51.210;6.838;2023-05-16T16:56:36;20.90;33.50
27492;DHT22;14927;51.210;6.838;2023-05-16T16:59:21;20.90;33.80
27492;DHT22;14927;51.210;6.838;2023-05-16T17:02:05;20.80;34.00
27492;DHT22;14927;51.210;6.838;2023-05-16T17:04:50;20.80;34.20
27492;DHT22;14927;51.210;6.838;2023-05-16T17:07:35;20.70;34.20
27492;DHT22;14927;51.210;6.838;2023-05-16T17:10:19;20.60;34.80
27492;DHT22;14927;51.210;6.838;2023-05-16T17:13:04;20.60;34.40
27492;DHT22;14927;51.210;6.838;2023-05-16T17:15:53;20.50;34.70
27492;DHT22;14927;51.210;6.838;2023-05-16T17:18:38;20.50;34.80
27492;DHT22;14927;51.210;6.838;2023-05-16T17:21:23;20.40;35.10
27492;DHT22;14927;51.210;6.838;2023-05-16T17:24:08;20.40;35.40
27492;DHT22;14927;51.210;6.838;2023-05-16T17:26:53;20.30;35.50
27492;DHT22;14927;51.210;6.838;2023-05-16T17:29:40;20.30;35.60
27492;DHT22;14927;51.210;6.838;2023-05-16T17:32:24;20.20;35.60
27492;DHT22;14927;51.210;6.838;2023-05-16T17:35:09;20.20;36.50
27492;DHT22;14927;51.210;6.838;2023-05-16T17:37:54;20.10;36.00
27492;DHT22;14927;51.210;6.838;2023-05-16T17:40:39;20.10;36.20